createdAt,value
2019-02-26T00:03:35.287Z,31.52
2019-02-26T00:11:41.355Z,29.12
2019-02-26T00:15:45.910Z,31.93
2019-02-26T00:19:50.135Z,30.45
2019-02-26T00:23:53.695Z,31.27
2019-02-26T00:27:58.649Z,31.93
2019-02-26T00:32:02.319Z,36.70
2019-02-26T00:36:07.166Z,34.55
2019-02-26T00:40:12.379Z,31.40
2019-02-26T00:44:18.612Z,32.15
2019-02-26T00:48:21.973Z,33.63
2019-02-26T00:52:25.534Z,37.98
2019-02-26T00:56:29.837Z,33.45
2019-02-26T01:00:35.490Z,34.73
2019-02-26T01:04:41.369Z,37.57
2019-02-26T01:08:45.259Z,39.38
2019-02-26T01:12:49.899Z,36.55
2019-02-26T01:16:53.449Z,34.83
2019-02-26T01:20:57.902Z,36.93
2019-02-26T01:25:02.229Z,35.78
2019-02-26T01:29:05.856Z,31.05
2019-02-26T01:33:09.768Z,33.98
2019-02-26T01:37:13.483Z,29.27
2019-02-26T01:41:18.004Z,35.25
2019-02-26T01:45:24.265Z,32.08
2019-02-26T01:49:28.488Z,33.80
2019-02-26T01:53:32.176Z,34.67
2019-02-26T01:57:35.998Z,35.93
2019-02-26T02:01:42.153Z,38.40
2019-02-26T02:05:45.760Z,41.37
2019-02-26T02:09:51.300Z,36.25
2019-02-26T02:13:55.169Z,47.35
2019-02-26T02:17:59.542Z,42.30
2019-02-26T02:22:03.931Z,37.20
2019-02-26T02:26:09.381Z,43.23
2019-02-26T02:30:22.621Z,41.50
2019-02-26T02:34:23.688Z,42.88
2019-02-26T02:38:26.687Z,38.92
2019-02-26T02:42:30.238Z,35.25
2019-02-26T02:46:34.240Z,36.45
2019-02-26T02:50:38.921Z,42.20
2019-02-26T02:54:44.206Z,36.20
2019-02-26T02:58:50.994Z,32.20
2019-02-26T03:06:58.750Z,39.63
2019-02-26T03:11:02.482Z,41.05
2019-02-26T03:15:10.158Z,36.48
2019-02-26T03:19:14.543Z,36.40
2019-02-26T03:23:19.929Z,47.03
2019-02-26T03:27:27.748Z,46.43
2019-02-26T03:35:33.569Z,40.10
2019-02-26T03:39:37.129Z,43.42
2019-02-26T03:43:41.789Z,44.08
2019-02-26T03:47:45.537Z,35.47
2019-02-26T03:51:49.117Z,37.63
2019-02-26T03:55:52.747Z,43.60
2019-02-26T03:59:56.376Z,44.30
2019-02-26T04:04:02.348Z,41.85
2019-02-26T04:08:05.230Z,35.70
2019-02-26T04:12:11.227Z,37.78
2019-02-26T04:20:17.013Z,45.15
2019-02-26T04:24:20.596Z,38.28
2019-02-26T04:28:44.793Z,36.83
2019-02-26T04:33:11.657Z,41.80
2019-02-26T04:37:27.487Z,40.25
2019-02-26T04:41:37.446Z,32.93
2019-02-26T04:45:50.019Z,46.68
2019-02-26T04:49:54.398Z,48.65
2019-02-26T04:53:59.494Z,45.67
2019-02-26T04:58:03.999Z,52.05
2019-02-26T05:02:07.575Z,49.95
2019-02-26T05:06:11.137Z,45.78
2019-02-26T05:10:14.706Z,45.70
2019-02-26T05:14:22.909Z,52.15
2019-02-26T05:18:25.874Z,51.25
2019-02-26T05:22:31.001Z,56.98
2019-02-26T05:26:33.976Z,43.23
2019-02-26T05:30:38.302Z,48.00
2019-02-26T05:34:45.297Z,47.85
2019-02-26T05:38:49.285Z,48.13
2019-02-26T05:42:53.908Z,48.87
2019-02-26T05:46:58.771Z,44.98
2019-02-26T05:55:08.435Z,46.75
2019-02-26T05:59:15.903Z,46.10
2019-02-26T06:03:20.556Z,50.70
2019-02-26T06:07:27.164Z,49.63
2019-02-26T06:11:33.210Z,52.45
2019-02-26T06:19:44.970Z,56.53
2019-02-26T06:23:53.250Z,53.25
2019-02-26T06:27:56.810Z,50.40
2019-02-26T06:32:14.543Z,59.53
2019-02-26T06:36:19.234Z,54.95
2019-02-26T06:40:23.750Z,53.73
2019-02-26T06:44:27.306Z,54.27
2019-02-26T06:48:32.335Z,52.48
2019-02-26T06:52:38.191Z,51.48
2019-02-26T06:56:43.768Z,57.08
2019-02-26T07:00:48.159Z,53.42
2019-02-26T07:04:51.980Z,62.73
2019-02-26T07:08:55.625Z,56.95
2019-02-26T07:12:59.190Z,63.35
2019-02-26T07:17:02.793Z,66.90
2019-02-26T07:21:06.364Z,57.70
2019-02-26T07:25:13.063Z,65.15
2019-02-26T07:29:17.565Z,60.85
2019-02-26T07:33:20.959Z,60.48
2019-02-26T07:37:24.634Z,60.95
2019-02-26T07:41:30.337Z,55.57
2019-02-26T07:45:33.445Z,60.53
2019-02-26T07:49:37.038Z,58.17
2019-02-26T07:53:44.389Z,65.90
2019-02-26T07:57:48.000Z,71.03
2019-02-26T08:01:51.091Z,60.57
2019-02-26T08:05:54.652Z,65.03
2019-02-26T08:09:58.218Z,63.65
2019-02-26T08:14:01.765Z,65.57
2019-02-26T08:18:05.400Z,70.60
2019-02-26T08:22:09.020Z,64.35
2019-02-26T08:26:12.570Z,63.75
2019-02-26T08:30:18.790Z,64.47
2019-02-26T08:34:21.892Z,69.22
2019-02-26T08:38:29.437Z,67.87
2019-02-26T08:42:30.681Z,65.63
2019-02-26T08:46:34.244Z,67.00
2019-02-26T08:50:38.975Z,69.47
2019-02-26T08:54:43.023Z,67.20
2019-02-26T08:58:46.607Z,63.63
2019-02-26T09:02:53.686Z,62.60
2019-02-26T09:06:57.088Z,63.33
2019-02-26T09:11:01.544Z,67.80
2019-02-26T09:15:09.151Z,64.37
2019-02-26T09:19:12.726Z,60.23
2019-02-26T09:23:18.834Z,61.20
2019-02-26T09:27:21.546Z,62.50
2019-02-26T09:31:25.110Z,66.60
2019-02-26T09:35:30.696Z,66.33
2019-02-26T09:39:36.045Z,63.30
2019-02-26T09:43:40.843Z,61.73
2019-02-26T09:47:44.939Z,63.40
2019-02-26T09:51:49.623Z,64.97
2019-02-26T09:55:53.237Z,64.72
2019-02-26T09:59:58.182Z,63.73
2019-02-26T10:04:03.613Z,65.27
2019-02-26T10:08:07.253Z,64.87
2019-02-26T10:12:15.127Z,59.58
2019-02-26T10:16:16.027Z,65.47
2019-02-26T10:20:27.303Z,61.90
2019-02-26T10:24:32.158Z,65.78
2019-02-26T10:28:37.326Z,59.30
2019-02-26T10:32:40.383Z,61.23
2019-02-26T10:36:46.482Z,59.47
2019-02-26T10:40:53.961Z,50.97
2019-02-26T10:44:54.399Z,50.77
2019-02-26T10:48:57.972Z,46.60
2019-02-26T10:53:07.253Z,44.75
2019-02-26T10:57:08.551Z,34.43
2019-02-26T11:01:11.960Z,36.00
2019-02-26T11:05:19.711Z,33.60
2019-02-26T11:09:25.392Z,31.83
2019-02-26T11:13:26.336Z,36.87
2019-02-26T11:17:31.620Z,39.33
2019-02-26T11:21:35.286Z,41.47
2019-02-26T11:25:39.147Z,45.08
2019-02-26T11:29:42.703Z,44.30
2019-02-26T11:33:48.077Z,44.42
2019-02-26T11:37:52.354Z,39.93
2019-02-26T11:41:58.649Z,37.78
2019-02-26T11:46:03.726Z,40.88
2019-02-26T11:50:11.855Z,43.10
2019-02-26T11:54:17.554Z,45.63
2019-02-26T11:58:22.318Z,43.83
2019-02-26T12:02:31.368Z,46.17
2019-02-26T12:06:31.339Z,45.40
2019-02-26T12:10:35.904Z,44.23
2019-02-26T12:14:43.109Z,44.70
2019-02-26T12:18:46.969Z,43.00
2019-02-26T12:22:52.362Z,42.53
2019-02-26T12:26:56.328Z,43.17
2019-02-26T12:31:01.250Z,39.40
2019-02-26T12:35:08.731Z,41.80
2019-02-26T12:39:12.250Z,38.78
2019-02-26T12:43:18.338Z,38.05
2019-02-26T12:47:21.780Z,43.50
2019-02-26T12:51:28.178Z,42.27
2019-02-26T12:55:34.896Z,37.83
2019-02-26T12:59:36.890Z,40.90
2019-02-26T13:03:42.833Z,41.85
2019-02-26T13:07:45.746Z,40.95
2019-02-26T13:12:01.199Z,39.20
2019-02-26T13:15:54.543Z,41.67
2019-02-26T13:19:58.879Z,39.03
2019-02-26T13:24:11.660Z,42.35
2019-02-26T13:28:08.591Z,44.03
2019-02-26T13:32:13.665Z,42.30
2019-02-26T13:36:17.699Z,44.75
2019-02-26T13:40:23.187Z,42.55
2019-02-26T13:44:26.761Z,43.03
2019-02-26T13:48:30.405Z,41.68
2019-02-26T13:52:33.998Z,44.10
2019-02-26T13:56:37.496Z,43.63
2019-02-26T14:00:41.424Z,44.35
2019-02-26T14:04:44.991Z,41.23
2019-02-26T14:08:48.572Z,41.50
2019-02-26T14:12:52.427Z,43.33
2019-02-26T14:16:55.986Z,45.60
2019-02-26T14:20:59.547Z,39.30
2019-02-26T14:25:03.116Z,39.43
2019-02-26T14:29:06.689Z,46.73
2019-02-26T14:33:10.259Z,41.07
2019-02-26T14:37:13.810Z,41.13
2019-02-26T14:41:17.393Z,29.35
2019-02-26T14:45:22.458Z,29.45
2019-02-26T14:49:26.895Z,32.43
2019-02-26T14:53:30.486Z,30.20
2019-02-26T14:57:34.051Z,29.70
2019-02-26T15:01:37.615Z,33.58
2019-02-26T15:05:41.179Z,33.42
2019-02-26T15:09:44.748Z,33.80
2019-02-26T15:13:48.332Z,35.13
2019-02-26T15:17:53.008Z,32.65
2019-02-26T15:21:57.245Z,34.45
2019-02-26T15:26:00.978Z,35.83
2019-02-26T15:30:07.355Z,32.17
2019-02-26T15:34:10.951Z,33.43
2019-02-26T15:38:14.531Z,33.45
2019-02-26T15:42:19.140Z,36.00
2019-02-26T15:46:23.303Z,33.83
2019-02-26T15:50:26.858Z,39.55
2019-02-26T15:54:30.459Z,38.95
2019-02-26T15:58:34.321Z,38.08
2019-02-26T16:02:38.291Z,40.10
2019-02-26T16:06:41.866Z,41.65
2019-02-26T16:10:45.633Z,40.78
2019-02-26T16:14:49.222Z,40.83
2019-02-26T16:18:52.784Z,44.27
2019-02-26T16:22:56.401Z,45.53
2019-02-26T16:26:59.915Z,41.33
2019-02-26T16:31:04.625Z,44.42
2019-02-26T16:35:08.369Z,43.13
2019-02-26T16:39:11.928Z,43.42
2019-02-26T16:43:17.073Z,44.48
2019-02-26T16:47:20.706Z,45.83
2019-02-26T16:51:24.386Z,43.78
2019-02-26T16:55:27.965Z,43.40
2019-02-26T16:59:31.527Z,45.17
2019-02-26T17:03:35.086Z,39.13
2019-02-26T17:07:38.657Z,41.67
2019-02-26T17:11:44.446Z,35.95
2019-02-26T17:15:47.590Z,44.13
2019-02-26T17:19:51.166Z,38.25
2019-02-26T17:23:54.749Z,42.27
2019-02-26T17:27:58.315Z,39.50
2019-02-26T17:32:04.754Z,44.48
2019-02-26T17:36:07.112Z,39.53
2019-02-26T17:40:16.474Z,44.43
2019-02-26T17:44:20.006Z,40.83
2019-02-26T17:48:23.573Z,50.03
2019-02-26T17:52:27.405Z,39.48
2019-02-26T17:56:30.998Z,46.42
2019-02-26T18:00:36.245Z,47.17
2019-02-26T18:04:39.810Z,40.40
2019-02-26T18:08:43.385Z,47.00
2019-02-26T18:12:46.998Z,49.40
2019-02-26T18:16:50.847Z,47.38
2019-02-26T18:20:54.487Z,48.35
2019-02-26T18:24:58.093Z,35.13
2019-02-26T18:29:01.674Z,37.20
2019-02-26T18:33:05.324Z,34.33
2019-02-26T18:37:08.898Z,39.03
2019-02-26T18:41:12.479Z,37.83
2019-02-26T18:45:29.655Z,37.60
2019-02-26T18:49:33.202Z,42.88
2019-02-26T18:53:36.774Z,40.70
2019-02-26T18:57:43.337Z,32.55
2019-02-26T19:01:46.917Z,35.33
2019-02-26T19:05:53.808Z,39.60
2019-02-26T19:09:55.689Z,43.40
2019-02-26T19:13:59.241Z,45.23
2019-02-26T19:18:03.430Z,34.67
2019-02-26T19:22:07.184Z,32.78
2019-02-26T19:26:13.543Z,31.27
2019-02-26T19:30:18.282Z,42.43
2019-02-26T19:34:21.841Z,51.98
2019-02-26T19:38:27.278Z,56.63
2019-02-26T19:42:30.638Z,38.30
2019-02-26T19:46:34.202Z,31.90
2019-02-26T19:50:37.760Z,35.23
2019-02-26T19:54:42.000Z,35.98
2019-02-26T19:58:46.083Z,38.00
2019-02-26T20:02:49.673Z,34.53
2019-02-26T20:06:53.268Z,32.05
2019-02-26T20:10:57.804Z,33.98
2019-02-26T20:15:01.483Z,39.53
2019-02-26T20:19:05.119Z,22.67
2019-02-26T20:23:08.709Z,30.45
2019-02-26T20:27:12.288Z,28.00
2019-02-26T20:31:15.988Z,26.63
2019-02-26T20:35:19.540Z,41.20
2019-02-26T20:39:23.174Z,47.17
2019-02-26T20:43:26.768Z,31.73
2019-02-26T20:47:31.679Z,26.52
2019-02-26T20:51:35.557Z,27.87
2019-02-26T20:55:39.117Z,28.42
2019-02-26T20:59:42.682Z,30.12
2019-02-26T21:03:46.250Z,27.60
2019-02-26T21:07:49.863Z,26.57
2019-02-26T21:11:53.590Z,28.65
2019-02-26T21:15:58.651Z,36.30
2019-02-26T21:20:02.207Z,52.10
2019-02-26T21:24:05.799Z,28.55
2019-02-26T21:28:09.382Z,32.53
2019-02-26T21:32:12.951Z,57.05
2019-02-26T21:36:16.506Z,53.35
2019-02-26T21:40:20.069Z,47.53
2019-02-26T21:44:23.667Z,36.17
2019-02-26T21:48:27.258Z,58.10
2019-02-26T21:52:30.815Z,41.73
2019-02-26T21:56:34.379Z,45.15
2019-02-26T22:00:39.142Z,47.67
2019-02-26T22:08:46.138Z,33.70
2019-02-26T22:12:49.748Z,32.48
2019-02-26T22:16:53.303Z,28.42
2019-02-26T22:20:56.866Z,30.12
2019-02-26T22:25:09.264Z,26.57
2019-02-26T22:29:07.938Z,64.43
2019-02-26T22:33:19.002Z,67.50
2019-02-26T22:37:26.998Z,66.17
2019-02-26T22:41:35.117Z,66.42
2019-02-26T22:45:38.919Z,59.80
2019-02-26T22:49:42.504Z,64.60
2019-02-26T22:53:46.076Z,66.75
2019-02-26T22:57:49.630Z,54.15
2019-02-26T23:01:54.798Z,51.88
2019-02-26T23:05:59.008Z,63.60
2019-02-26T23:10:03.174Z,64.60
2019-02-26T23:14:07.292Z,43.45
2019-02-26T23:18:10.837Z,51.95
2019-02-26T23:22:14.390Z,55.90
2019-02-26T23:26:18.122Z,43.38
2019-02-26T23:30:21.862Z,41.10
2019-02-26T23:34:25.449Z,46.63
2019-02-26T23:38:28.994Z,50.10
2019-02-26T23:42:32.552Z,45.08
2019-02-26T23:46:36.483Z,43.85
2019-02-26T23:50:40.059Z,40.38
2019-02-26T23:54:43.634Z,40.98
2019-02-26T23:58:47.198Z,44.00
